Time;durP1;ratioP1;P1;durP2;ratioP2;P2;SDS_P1;SDS_P2;PMS_P1;PMS_P2;Temp;Humidity;BMP_temperature;BMP_pressure;BME280_temperature;BME280_humidity;BME280_pressure;Samples;Min_cycle;Max_cycle;Signal;HPM_P1;HPM_P2
2022/07/07 00:00:07;;;;;;;9.35;5.88;;;;;;;17.87;76.67;101950.13;5009778;28;20077;-87
2022/07/07 00:02:32;;;;;;;9.27;5.88;;;;;;;17.82;76.50;101931.19;5006231;28;20065;-88
2022/07/07 00:04:58;;;;;;;10.03;5.47;;;;;;;17.79;76.97;101926.31;5010321;28;20088;-87
2022/07/07 00:07:23;;;;;;;10.20;5.87;;;;;;;17.78;76.73;101920.09;5008793;28;20037;-87
2022/07/07 00:09:48;;;;;;;7.70;5.70;;;;;;;17.84;76.89;101929.78;5013797;28;20026;-87
2022/07/07 00:12:14;;;;;;;8.70;5.70;;;;;;;17.80;76.61;101927.94;5011982;28;20022;-87
2022/07/07 00:14:40;;;;;;;9.57;5.80;;;;;;;17.78;77.04;101925.50;5013685;28;20030;-87
2022/07/07 00:17:06;;;;;;;11.52;6.00;;;;;;;17.78;76.94;101924.69;5013848;28;20037;-87
2022/07/07 00:19:32;;;;;;;6.60;5.53;;;;;;;17.80;76.80;101919.81;5012510;28;20030;-87
2022/07/07 00:21:58;;;;;;;13.07;5.88;;;;;;;17.83;77.23;101922.75;5011872;28;20022;-88
2022/07/07 00:24:24;;;;;;;11.17;5.83;;;;;;;17.82;77.11;101914.91;5012648;28;20053;-88
2022/07/07 00:26:49;;;;;;;9.07;5.55;;;;;;;17.84;76.74;101915.44;5012583;28;20109;-87
2022/07/07 00:29:14;;;;;;;7.20;5.17;;;;;;;17.77;77.00;101909.50;5013542;28;20661;-87
2022/07/07 00:31:39;;;;;;;8.07;5.47;;;;;;;17.78;76.63;101903.81;5011056;28;20056;-87
2022/07/07 00:34:05;;;;;;;10.83;5.20;;;;;;;17.79;76.76;101900.03;5012959;28;20044;-87
2022/07/07 00:36:30;;;;;;;8.93;4.93;;;;;;;17.80;76.85;101888.06;5011192;28;20065;-87
2022/07/07 00:38:56;;;;;;;8.13;4.90;;;;;;;17.80;76.49;101892.69;5013919;28;20040;-87
2022/07/07 00:41:21;;;;;;;10.93;5.22;;;;;;;17.78;76.56;101893.00;5011719;28;20462;-87
2022/07/07 00:43:47;;;;;;;11.57;4.97;;;;;;;17.75;76.95;101881.88;5013401;28;20036;-87
2022/07/07 00:46:13;;;;;;;8.63;4.97;;;;;;;17.77;77.02;101879.69;5012094;28;20088;-87
2022/07/07 00:48:40;;;;;;;9.02;4.60;;;;;;;17.77;77.38;101880.53;5013287;28;20454;-87
2022/07/07 00:51:08;;;;;;;9.38;4.35;;;;;;;17.76;76.83;101878.06;5011758;28;20050;-88
2022/07/07 00:53:34;;;;;;;6.60;4.40;;;;;;;17.74;77.31;101880.25;5013047;28;20096;-87
2022/07/07 00:55:59;;;;;;;4.90;4.20;;;;;;;17.74;77.21;101881.06;5013372;28;20109;-88
2022/07/07 00:58:24;;;;;;;6.97;4.40;;;;;;;17.71;76.88;101868.09;5013091;28;20036;-88
2022/07/07 01:00:50;;;;;;;6.00;4.13;;;;;;;17.71;77.29;101871.59;5012588;28;20310;-86
2022/07/07 01:03:15;;;;;;;6.50;4.47;;;;;;;17.71;76.97;101868.88;5013026;28;20041;-87
2022/07/07 01:05:41;;;;;;;4.67;4.03;;;;;;;17.71;77.14;101865.38;5011634;28;20061;-88
2022/07/07 01:08:08;;;;;;;6.13;4.30;;;;;;;17.70;77.30;101864.56;5012207;28;20030;-88
2022/07/07 01:10:35;;;;;;;6.50;4.32;;;;;;;17.71;77.34;101870.78;5011269;28;20014;-87
2022/07/07 01:13:02;;;;;;;5.77;4.00;;;;;;;17.68;77.71;101879.47;5012239;28;20022;-87
2022/07/07 01:15:27;;;;;;;9.03;4.57;;;;;;;17.67;78.39;101873.25;5012579;28;20368;-86
2022/07/07 01:17:53;;;;;;;6.95;3.95;;;;;;;17.65;78.42;101871.91;5010708;28;20053;-87
2022/07/07 01:20:19;;;;;;;6.33;4.10;;;;;;;17.65;78.89;101878.16;5011195;28;20053;-85
2022/07/07 01:22:50;;;;;;;7.10;4.05;;;;;;;17.63;78.66;101874.91;5011298;28;20037;-87
2022/07/07 01:25:16;;;;;;;6.30;3.53;;;;;;;17.61;78.63;101868.97;5012859;28;20750;-88
2022/07/07 01:27:42;;;;;;;4.80;3.80;;;;;;;17.61;78.29;101855.41;5012309;28;20026;-85
2022/07/07 01:30:07;;;;;;;7.68;3.50;;;;;;;17.67;78.48;101869.72;5011804;28;20033;-85
2022/07/07 01:32:33;;;;;;;5.50;3.50;;;;;;;17.65;78.54;101867.31;5010609;28;20026;-86
2022/07/07 01:34:58;;;;;;;10.20;3.85;;;;;;;17.67;79.05;101867.03;5011658;28;20030;-87
2022/07/07 01:37:26;;;;;;;9.63;4.40;;;;;;;17.66;79.31;101857.25;5011667;28;20124;-87
2022/07/07 01:39:52;;;;;;;8.55;3.88;;;;;;;17.67;79.02;101858.88;5012389;28;20021;-87
2022/07/07 01:42:18;;;;;;;8.43;3.88;;;;;;;17.64;78.49;101846.72;5010794;28;20061;-87
2022/07/07 01:44:43;;;;;;;8.37;3.70;;;;;;;17.60;79.11;101839.44;5011101;28;20076;-87
2022/07/07 01:47:11;;;;;;;4.32;3.88;;;;;;;17.61;79.51;101830.22;5012178;28;20059;-87
2022/07/07 01:49:37;;;;;;;5.93;3.67;;;;;;;17.58;79.54;101831.56;5011997;28;20030;-87
2022/07/07 01:52:04;;;;;;;5.27;3.50;;;;;;;17.61;79.78;101846.47;5009347;28;20036;-88
2022/07/07 01:54:34;;;;;;;8.33;4.40;;;;;;;17.55;79.99;101840.25;5011540;28;20797;-87
2022/07/07 01:56:59;;;;;;;8.13;4.20;;;;;;;17.59;79.59;101844.03;5011832;28;20517;-87
2022/07/07 01:59:25;;;;;;;7.13;4.30;;;;;;;17.58;79.93;101834.28;5011927;28;20121;-87
2022/07/07 02:01:51;;;;;;;8.93;4.10;;;;;;;17.53;80.38;101837.00;5008624;28;20038;-87
2022/07/07 02:04:16;;;;;;;9.13;4.05;;;;;;;17.57;80.22;101835.38;5010836;28;20508;-87
2022/07/07 02:06:42;;;;;;;7.53;3.70;;;;;;;17.56;80.15;101841.88;5011815;28;20030;-87
2022/07/07 02:09:08;;;;;;;10.43;4.18;;;;;;;17.55;80.90;101843.78;5010236;28;20382;-87
2022/07/07 02:11:34;;;;;;;6.17;4.10;;;;;;;17.57;80.65;101838.09;5008464;28;20048;-88
2022/07/07 02:14:02;;;;;;;9.30;4.35;;;;;;;17.53;81.53;101839.72;5010894;28;20497;-87
2022/07/07 02:16:28;;;;;;;8.25;3.97;;;;;;;17.53;81.97;101842.44;5011498;28;20030;-86
2022/07/07 02:18:55;;;;;;;6.47;4.28;;;;;;;17.47;83.34;101838.94;5010412;28;20034;-85
2022/07/07 02:21:22;;;;;;;5.82;3.92;;;;;;;17.38;84.02;101836.03;5010132;28;20037;-85
2022/07/07 02:23:49;;;;;;;5.80;4.20;;;;;;;17.25;84.50;101832.03;5011754;28;20473;-86
2022/07/07 02:26:14;;;;;;;5.90;4.10;;;;;;;17.10;87.08;101830.22;5011224;28;20284;-84
2022/07/07 02:28:40;;;;;;;5.53;4.05;;;;;;;16.98;87.74;101821.59;5010027;28;20026;-84
2022/07/07 02:31:06;;;;;;;8.60;4.63;;;;;;;16.92;88.35;101825.38;5010688;28;20026;-84
2022/07/07 02:33:32;;;;;;;7.60;4.07;;;;;;;16.94;88.00;101831.34;5010376;28;20508;-84
2022/07/07 02:35:57;;;;;;;10.00;4.17;;;;;;;16.93;89.29;101830.50;5011223;28;20078;-84
2022/07/07 02:38:23;;;;;;;6.80;4.13;;;;;;;16.93;89.65;101824.31;5010591;28;20033;-85
2022/07/07 02:40:49;;;;;;;7.10;3.80;;;;;;;16.91;89.55;101802.91;5009062;28;20017;-84
2022/07/07 02:43:14;;;;;;;6.35;3.63;;;;;;;16.94;89.27;101813.19;5009328;28;20018;-84
2022/07/07 02:45:40;;;;;;;9.00;3.70;;;;;;;17.00;88.92;101818.63;5010620;28;20531;-85
2022/07/07 02:48:07;;;;;;;7.75;3.60;;;;;;;17.06;88.16;101829.13;5011259;28;20073;-85
2022/07/07 02:50:33;;;;;;;4.85;3.10;;;;;;;17.10;88.18;101822.09;5006738;28;20026;-84
2022/07/07 02:52:58;;;;;;;6.30;3.60;;;;;;;17.11;89.52;101825.59;5010036;28;20033;-84
2022/07/07 02:55:24;;;;;;;5.93;3.70;;;;;;;17.09;89.01;101816.94;5009816;28;20093;-85
2022/07/07 02:57:50;;;;;;;11.10;3.78;;;;;;;17.14;88.69;101816.91;5010782;28;20033;-84
2022/07/07 03:00:16;;;;;;;7.88;3.20;;;;;;;17.15;88.32;101823.97;5010679;28;20021;-84
2022/07/07 03:02:42;;;;;;;9.07;3.63;;;;;;;17.14;88.42;101825.03;5005306;28;20034;-84
2022/07/07 03:05:08;;;;;;;7.30;3.20;;;;;;;17.16;87.22;101813.94;5010958;28;20289;-84
2022/07/07 03:07:33;;;;;;;8.13;3.37;;;;;;;17.23;88.75;101814.44;5010067;28;20105;-85
2022/07/07 03:09:58;;;;;;;5.47;3.07;;;;;;;17.20;87.27;101820.41;5009563;28;20122;-84
2022/07/07 03:12:23;;;;;;;7.07;3.07;;;;;;;17.05;89.34;101824.03;5008475;28;20416;-85
2022/07/07 03:14:49;;;;;;;5.43;2.60;;;;;;;16.77;89.13;101831.66;5009094;28;20044;-85
2022/07/07 03:17:14;;;;;;;2.30;2.10;;;;;;;16.50;90.39;101835.50;5010841;28;20033;-85
2022/07/07 03:19:39;;;;;;;3.70;2.10;;;;;;;16.36;91.42;101840.66;5009830;28;20470;-85
2022/07/07 03:22:05;;;;;;;7.70;2.15;;;;;;;16.17;94.10;101846.63;5007363;28;20038;-85
2022/07/07 03:24:31;;;;;;;3.90;2.23;;;;;;;16.05;94.80;101843.41;5009192;28;20044;-84
2022/07/07 03:26:58;;;;;;;5.83;2.47;;;;;;;15.96;95.09;101842.28;5010254;28;20022;-84
2022/07/07 03:29:24;;;;;;;4.22;2.22;;;;;;;15.89;96.64;101840.66;5010466;28;20049;-84
2022/07/07 03:31:50;;;;;;;3.78;2.20;;;;;;;15.75;96.08;101834.97;5008150;28;20461;-84
2022/07/07 03:34:15;;;;;;;4.03;1.80;;;;;;;15.78;95.08;101836.31;5009328;28;20087;-84
2022/07/07 03:36:40;;;;;;;3.57;2.00;;;;;;;15.76;96.33;101846.56;5009775;28;20040;-84
2022/07/07 03:39:05;;;;;;;4.72;2.22;;;;;;;15.74;97.06;101849.53;5009963;28;20667;-84
2022/07/07 03:41:31;;;;;;;3.67;2.23;;;;;;;15.73;97.87;101850.63;5008801;28;20022;-85
2022/07/07 03:43:57;;;;;;;4.60;1.97;;;;;;;15.75;97.49;101842.25;5008505;28;20030;-85
2022/07/07 03:46:23;;;;;;;3.80;2.35;;;;;;;15.65;98.95;101845.72;5009752;28;20032;-85
2022/07/07 03:48:48;;;;;;;3.27;2.67;;;;;;;15.62;100.00;101842.75;5009985;28;20030;-86
2022/07/07 03:51:13;;;;;;;3.47;2.63;;;;;;;15.63;100.00;101847.88;5007796;28;20022;-85
2022/07/07 03:53:39;;;;;;;4.47;2.43;;;;;;;15.60;100.00;101843.84;5007064;28;20409;-88
2022/07/07 03:56:04;;;;;;;6.47;2.50;;;;;;;15.57;100.00;101841.66;5009592;28;20120;-83
2022/07/07 03:58:29;;;;;;;3.10;2.28;;;;;;;15.55;100.00;101845.72;5010059;28;20021;-91
2022/07/07 04:00:55;;;;;;;3.13;2.33;;;;;;;15.49;100.00;101842.19;5008724;28;20054;-89
2022/07/07 04:03:20;;;;;;;4.47;2.50;;;;;;;15.50;100.00;101848.41;5008138;28;20030;-89
2022/07/07 04:05:45;;;;;;;4.10;2.57;;;;;;;15.51;100.00;101840.06;5010479;28;20038;-89
2022/07/07 04:08:11;;;;;;;5.80;2.43;;;;;;;15.54;100.00;101836.78;5009621;28;20026;-89
2022/07/07 04:10:36;;;;;;;4.95;2.45;;;;;;;15.55;100.00;101835.72;5009696;28;20018;-90
2022/07/07 04:13:01;;;;;;;7.40;2.30;;;;;;;15.55;100.00;101835.72;5008844;28;20609;-92
2022/07/07 04:15:26;;;;;;;3.80;2.67;;;;;;;15.58;100.00;101824.38;5009386;28;20037;-91
2022/07/07 04:17:52;;;;;;;4.73;2.57;;;;;;;15.46;100.00;101804.91;5007403;28;20033;-91
2022/07/07 04:20:17;;;;;;;3.53;3.00;;;;;;;15.62;100.00;101821.16;5007839;28;20037;-91
2022/07/07 04:22:42;;;;;;;6.40;2.83;;;;;;;15.64;100.00;101822.50;5008365;28;20026;-91
2022/07/07 04:25:08;;;;;;;7.70;2.73;;;;;;;15.63;100.00;101814.66;4998681;28;20030;-91
2022/07/07 04:27:33;;;;;;;5.30;2.85;;;;;;;15.58;100.00;101804.69;4998700;28;20456;-90
2022/07/07 04:29:59;;;;;;;6.03;2.80;;;;;;;15.72;100.00;101818.44;5008520;28;20053;-90
2022/07/07 04:32:24;;;;;;;5.50;2.77;;;;;;;15.72;100.00;101815.75;5008485;28;20029;-91
2022/07/07 04:34:49;;;;;;;4.70;2.90;;;;;;;15.69;100.00;101816.31;5009893;28;20477;-92
2022/07/07 04:37:15;;;;;;;5.53;3.20;;;;;;;15.80;100.00;101825.22;5009206;28;20021;-90
2022/07/07 04:39:40;;;;;;;6.90;3.43;;;;;;;15.88;100.00;101836.38;5008884;28;20477;-90
2022/07/07 04:42:05;;;;;;;5.50;3.10;;;;;;;15.99;100.00;101839.06;5012862;28;20107;-89
2022/07/07 04:44:31;;;;;;;5.47;3.37;;;;;;;16.01;100.00;101845.81;5019276;28;20038;-89
2022/07/07 04:46:56;;;;;;;7.40;3.60;;;;;;;15.98;100.00;101842.84;5009907;28;20030;-90
2022/07/07 04:49:21;;;;;;;5.73;3.70;;;;;;;15.88;100.00;101849.88;5009674;28;20575;-88
2022/07/07 04:51:48;;;;;;;5.70;3.50;;;;;;;15.81;100.00;101857.38;5008439;28;20030;-89
2022/07/07 04:54:17;;;;;;;3.60;2.92;;;;;;;15.77;100.00;101869.00;5009537;28;20061;-88
2022/07/07 04:56:42;;;;;;;8.10;3.40;;;;;;;15.67;100.00;101859.00;5013249;28;20038;-88
2022/07/07 04:59:07;;;;;;;6.70;2.60;;;;;;;15.61;100.00;101850.06;5016468;28;20031;-88
2022/07/07 05:01:33;;;;;;;4.73;2.67;;;;;;;15.63;100.00;101861.41;5015034;28;20038;-89
2022/07/07 05:03:58;;;;;;;2.87;2.20;;;;;;;15.63;100.00;101857.91;5012402;28;20026;-90
2022/07/07 05:06:23;;;;;;;6.13;2.20;;;;;;;15.66;100.00;101873.56;5010956;28;20037;-89
2022/07/07 05:08:49;;;;;;;4.65;2.00;;;;;;;15.69;100.00;101871.16;5012971;28;20042;-87
2022/07/07 05:11:14;;;;;;;7.50;1.23;;;;;;;15.65;100.00;101869.25;5015584;28;20029;-88
2022/07/07 05:13:39;;;;;;;3.43;1.20;;;;;;;15.55;100.00;101864.63;5023943;28;20104;-88
2022/07/07 05:16:05;;;;;;;3.80;1.27;;;;;;;15.65;100.00;101882.75;5032886;28;20590;-87
2022/07/07 05:18:33;;;;;;;4.15;1.27;;;;;;;15.67;100.00;101886.81;5024060;28;20048;-89
2022/07/07 05:21:01;;;;;;;3.95;1.20;;;;;;;15.81;100.00;101881.72;5010799;28;20046;-89
2022/07/07 05:23:27;;;;;;;5.65;1.30;;;;;;;15.88;100.00;101895.00;5010424;28;20091;-88
2022/07/07 05:25:52;;;;;;;3.53;1.20;;;;;;;15.91;100.00;101899.88;5012937;28;20026;-88
2022/07/07 05:28:18;;;;;;;6.55;1.20;;;;;;;15.90;100.00;101896.34;5012043;28;20507;-88
2022/07/07 05:30:43;;;;;;;4.80;1.07;;;;;;;16.01;100.00;101890.97;5009512;28;20050;-87
2022/07/07 05:33:09;;;;;;;5.37;1.60;;;;;;;16.24;100.00;101911.25;5012191;28;20030;-88
2022/07/07 05:35:35;;;;;;;5.10;1.27;;;;;;;16.57;98.38;101900.97;5011944;28;20382;-88
2022/07/07 05:38:01;;;;;;;5.75;1.30;;;;;;;16.85;95.71;101887.09;5013906;28;20030;-89
2022/07/07 05:40:27;;;;;;;4.25;1.23;;;;;;;17.02;95.50;101898.47;5010534;28;20108;-84
2022/07/07 05:42:52;;;;;;;3.83;1.20;;;;;;;17.18;93.92;101912.78;5010335;28;20628;-88
2022/07/07 05:45:18;;;;;;;3.47;1.10;;;;;;;17.34;92.83;101910.84;5012647;28;20121;-86
2022/07/07 05:47:43;;;;;;;6.50;1.15;;;;;;;17.40;91.49;101919.75;5025875;28;20425;-86
2022/07/07 05:50:08;;;;;;;7.37;1.33;;;;;;;17.67;91.28;101919.34;5022580;28;20018;-88
2022/07/07 05:52:34;;;;;;;2.07;1.10;;;;;;;17.87;88.73;101920.31;5018331;28;20031;-86
2022/07/07 05:54:59;;;;;;;5.43;1.10;;;;;;;17.75;87.94;101922.53;5010634;28;20652;-85
2022/07/07 05:57:24;;;;;;;8.83;1.60;;;;;;;17.50;88.59;101929.72;5008540;28;20079;-85
2022/07/07 05:59:50;;;;;;;4.37;1.27;;;;;;;17.31;90.34;101933.06;5007849;28;20037;-85
2022/07/07 06:02:15;;;;;;;8.68;1.65;;;;;;;17.20;89.66;101934.97;5011301;28;20034;-86
2022/07/07 06:04:41;;;;;;;6.77;1.43;;;;;;;16.94;92.07;101945.03;5009976;28;20033;-85
2022/07/07 06:07:06;;;;;;;4.63;1.00;;;;;;;16.50;93.09;101949.13;5011006;28;20057;-85
2022/07/07 06:09:32;;;;;;;6.37;1.30;;;;;;;16.12;95.93;101956.69;5010367;28;20295;-85
2022/07/07 06:11:58;;;;;;;5.63;1.20;;;;;;;15.88;97.57;101955.28;5010667;28;20418;-85
2022/07/07 06:14:23;;;;;;;7.88;1.52;;;;;;;15.78;98.81;101965.22;5011177;28;20018;-84
2022/07/07 06:16:48;;;;;;;8.20;1.43;;;;;;;15.73;99.22;101965.97;5010932;28;20042;-84
2022/07/07 06:19:14;;;;;;;7.00;1.17;;;;;;;15.79;96.29;101970.34;5008976;28;20057;-84
2022/07/07 06:21:41;;;;;;;5.93;1.00;;;;;;;15.95;97.20;101973.94;5008711;28;20508;-84
2022/07/07 06:24:07;;;;;;;5.88;1.42;;;;;;;16.23;97.36;101989.94;4999521;28;20113;-83
2022/07/07 06:26:32;;;;;;;6.28;1.30;;;;;;;16.56;95.72;101985.13;5010004;28;20540;-83
2022/07/07 06:28:57;;;;;;;6.60;1.40;;;;;;;16.84;93.27;101991.88;5010362;28;20481;-83
2022/07/07 06:31:23;;;;;;;9.75;1.25;;;;;;;17.02;91.57;101990.53;5007969;28;20033;-83
2022/07/07 06:33:48;;;;;;;7.63;1.17;;;;;;;17.12;89.41;101994.31;5009614;28;20117;-83
2022/07/07 06:36:14;;;;;;;13.50;1.67;;;;;;;17.17;88.17;101999.69;5010881;28;20445;-84
2022/07/07 06:38:39;;;;;;;9.50;1.30;;;;;;;17.38;86.34;102000.47;5011489;28;20026;-82
2022/07/07 06:41:05;;;;;;;8.87;1.40;;;;;;;17.32;83.46;102002.38;5010168;28;20300;-81
2022/07/07 06:43:30;;;;;;;7.53;1.53;;;;;;;17.26;83.12;102004.28;5008854;28;20383;-85
2022/07/07 06:45:55;;;;;;;9.07;1.50;;;;;;;17.43;83.84;102005.06;5007189;28;20045;-86
2022/07/07 06:48:20;;;;;;;8.53;1.47;;;;;;;17.65;82.38;102013.66;5009633;28;20036;-86
2022/07/07 06:50:46;;;;;;;8.25;1.52;;;;;;;17.85;80.33;102031.72;5008352;28;20105;-85
2022/07/07 06:53:12;;;;;;;7.40;0.97;;;;;;;17.77;78.76;102029.63;5009542;28;20104;-85
2022/07/07 06:55:37;;;;;;;12.17;1.60;;;;;;;17.48;79.56;102037.56;5011187;28;20061;-85
2022/07/07 06:58:02;;;;;;;11.40;1.38;;;;;;;16.85;87.78;102034.09;5010430;28;20033;-85
2022/07/07 07:00:28;;;;;;;6.53;1.50;;;;;;;16.18;94.89;102031.28;5010538;28;20037;-84
2022/07/07 07:02:54;;;;;;;6.40;1.20;;;;;;;16.03;96.76;102032.06;5009611;28;20030;-83
2022/07/07 07:05:19;;;;;;;9.20;1.40;;;;;;;15.87;96.43;102037.44;5009737;28;20068;-83
2022/07/07 07:07:45;;;;;;;7.20;1.10;;;;;;;15.73;97.22;102025.44;5011158;28;20090;-83
2022/07/07 07:10:10;;;;;;;7.47;0.95;;;;;;;15.59;97.50;102014.31;5010459;28;20053;-83
2022/07/07 07:12:36;;;;;;;8.63;1.33;;;;;;;15.60;96.13;102027.53;5009943;28;20036;-84
2022/07/07 07:15:01;;;;;;;11.50;1.10;;;;;;;15.76;94.93;102035.72;5009259;28;20030;-83
2022/07/07 07:17:26;;;;;;;6.28;1.00;;;;;;;15.88;95.96;102030.94;5006732;28;20030;-83
2022/07/07 07:19:53;;;;;;;6.63;1.17;;;;;;;15.90;94.48;102045.00;5009596;28;20030;-82
2022/07/07 07:22:18;;;;;;;6.97;1.08;;;;;;;15.94;93.48;102036.34;5010247;28;20104;-83
2022/07/07 07:24:44;;;;;;;8.23;1.07;;;;;;;15.88;93.66;102041.75;5011017;28;20109;-84
2022/07/07 07:27:09;;;;;;;5.53;1.10;;;;;;;15.98;94.18;102037.47;5009772;28;20040;-83
2022/07/07 07:29:34;;;;;;;7.30;1.10;;;;;;;16.14;88.86;102047.25;5010663;28;20034;-84
2022/07/07 07:32:00;;;;;;;6.13;1.30;;;;;;;16.39;86.82;102047.56;5006905;28;20037;-85
2022/07/07 07:34:25;;;;;;;7.23;1.03;;;;;;;16.54;84.44;102060.31;5008589;28;20030;-82
2022/07/07 07:36:50;;;;;;;6.93;0.90;;;;;;;16.53;83.56;102064.09;5009213;28;20301;-83
2022/07/07 07:39:16;;;;;;;6.83;1.10;;;;;;;16.77;84.72;102062.53;5006995;28;20048;-83
2022/07/07 07:41:43;;;;;;;6.43;0.97;;;;;;;17.17;81.86;102070.94;5009056;28;20285;-83
2022/07/07 07:44:09;;;;;;;6.65;1.40;;;;;;;17.60;79.66;102070.59;5010910;28;20026;-82
2022/07/07 07:46:34;;;;;;;8.50;1.30;;;;;;;18.45;74.21;102071.59;5010217;28;20026;-84
2022/07/07 07:49:05;;;;;;;6.80;1.10;;;;;;;18.76;70.55;102076.81;5007350;28;20109;-83
2022/07/07 07:51:30;;;;;;;8.93;1.00;;;;;;;18.70;70.95;102072.53;5010153;28;20030;-83
2022/07/07 07:53:55;;;;;;;4.47;0.95;;;;;;;18.77;71.72;102070.28;5009543;28;20620;-83
2022/07/07 07:56:21;;;;;;;5.80;1.20;;;;;;;19.13;71.82;102076.53;5010040;28;20033;-84
2022/07/07 07:58:46;;;;;;;5.83;0.93;;;;;;;19.20;69.26;102085.19;5008708;28;20397;-84
2022/07/07 08:01:11;;;;;;;6.93;1.00;;;;;;;19.31;69.07;102080.47;5008222;28;20553;-85
2022/07/07 08:03:36;;;;;;;6.30;1.00;;;;;;;19.39;68.73;102087.97;5009770;28;20088;-83
2022/07/07 08:06:02;;;;;;;4.43;1.03;;;;;;;19.26;66.93;102096.81;5010319;28;20042;-85
2022/07/07 08:08:27;;;;;;;6.10;1.50;;;;;;;18.44;75.45;102093.59;5009296;28;20037;-83
2022/07/07 08:10:53;;;;;;;6.07;1.35;;;;;;;17.53;82.33;102102.56;5010855;28;20034;-84
2022/07/07 08:13:18;;;;;;;2.57;0.97;;;;;;;17.00;85.98;102092.06;5010141;28;20046;-84
2022/07/07 08:15:43;;;;;;;5.30;0.97;;;;;;;16.83;88.36;102090.41;5010752;28;20038;-84
2022/07/07 08:18:09;;;;;;;6.03;1.10;;;;;;;16.73;87.68;102104.72;5009131;28;20076;-84
2022/07/07 08:20:34;;;;;;;4.88;0.82;;;;;;;16.53;88.89;102096.56;5009955;28;20030;-84
2022/07/07 08:22:59;;;;;;;7.10;1.00;;;;;;;16.54;86.79;102111.72;5010605;28;20029;-85
2022/07/07 08:25:25;;;;;;;7.63;1.00;;;;;;;16.46;87.33;102107.66;5010620;28;20493;-84
2022/07/07 08:27:50;;;;;;;6.57;0.73;;;;;;;16.65;84.92;102106.06;5014143;28;20022;-85
2022/07/07 08:30:15;;;;;;;5.40;0.93;;;;;;;16.81;84.63;102115.00;5015865;28;20524;-85
2022/07/07 08:32:44;;;;;;;5.53;0.90;;;;;;;17.01;83.39;102123.47;5014885;28;20041;-84
2022/07/07 08:35:10;;;;;;;4.27;1.10;;;;;;;17.53;80.39;102119.66;5013593;28;20292;-85
2022/07/07 08:37:35;;;;;;;3.17;0.80;;;;;;;18.10;79.67;102121.41;5013727;28;20112;-85
2022/07/07 08:40:00;;;;;;;4.93;0.80;;;;;;;18.35;74.27;102123.19;5013465;28;20036;-84
2022/07/07 08:42:26;;;;;;;3.03;0.80;;;;;;;18.60;71.40;102119.56;5013156;28;20076;-83
2022/07/07 08:44:51;;;;;;;3.10;0.60;;;;;;;18.86;71.10;102124.00;5014538;28;20025;-85
2022/07/07 08:47:17;;;;;;;5.25;0.77;;;;;;;19.03;70.62;102120.91;5013571;28;20034;-84
2022/07/07 08:49:42;;;;;;;4.03;0.87;;;;;;;19.16;68.06;102124.88;5012216;28;20038;-85
2022/07/07 08:52:08;;;;;;;3.60;0.73;;;;;;;19.16;67.53;102122.16;5013086;28;20437;-84
2022/07/07 08:54:37;;;;;;;4.78;0.95;;;;;;;18.81;66.91;102127.53;5013396;28;20029;-84
2022/07/07 08:57:03;;;;;;;3.67;0.70;;;;;;;18.70;69.43;102128.72;5013391;28;20045;-84
2022/07/07 08:59:28;;;;;;;4.40;0.90;;;;;;;18.96;69.93;102128.56;5012337;28;20030;-84
2022/07/07 09:02:01;;;;;;;4.27;1.03;;;;;;;19.57;69.47;102129.09;5013046;28;20037;-84
2022/07/07 09:04:27;;;;;;;3.53;0.70;;;;;;;20.13;66.17;102141.31;5011349;28;20026;-84
2022/07/07 09:07:04;;;;;;;5.13;0.93;;;;;;;20.64;66.82;102128.09;5013452;28;20091;-84
2022/07/07 09:09:35;;;;;;;2.80;0.67;;;;;;;21.14;64.20;102143.97;5012386;28;20451;-83
2022/07/07 09:12:01;;;;;;;3.43;1.03;;;;;;;21.25;61.35;102141.91;5012848;28;20312;-84
2022/07/07 09:14:35;;;;;;;6.13;1.27;;;;;;;21.04;63.88;102147.69;5012700;28;20440;-85
2022/07/07 09:17:01;;;;;;;2.83;0.82;;;;;;;20.56;61.61;102148.63;5012776;28;20064;-85
2022/07/07 09:19:28;;;;;;;5.33;0.90;;;;;;;20.07;62.66;102151.44;5011062;28;20053;-84
2022/07/07 09:21:55;;;;;;;3.92;0.77;;;;;;;19.75;64.41;102162.91;4992853;28;20029;-84
2022/07/07 09:24:20;;;;;;;3.95;0.98;;;;;;;19.46;63.67;102145.53;4993031;28;20034;-83
2022/07/07 09:26:51;;;;;;;4.60;1.00;;;;;;;19.30;64.35;102168.50;4993633;28;20030;-86
2022/07/07 09:29:18;;;;;;;5.75;1.08;;;;;;;19.44;65.80;102169.47;5001321;28;20064;-84
2022/07/07 09:31:58;;;;;;;3.65;0.90;;;;;;;19.76;64.12;102169.97;5012634;28;20026;-85
2022/07/07 09:34:37;;;;;;;4.35;1.05;;;;;;;19.73;63.52;102176.78;5012135;28;20030;-85
2022/07/07 09:39:55;;;;;;;4.63;1.00;;;;;;;19.41;66.03;102183.63;5011482;28;20121;-84
2022/07/07 09:42:27;;;;;;;6.00;0.80;;;;;;;19.41;66.14;102170.03;5011743;28;20022;-84
2022/07/07 09:45:02;;;;;;;9.73;1.00;;;;;;;19.58;64.58;102190.53;5012716;28;20105;-85
2022/07/07 09:47:28;;;;;;;1.97;0.70;;;;;;;19.65;64.39;102191.03;5012124;28;20554;-85
2022/07/07 09:50:06;;;;;;;3.23;1.00;;;;;;;20.04;64.13;102187.38;5011809;28;20292;-84
2022/07/07 09:52:34;;;;;;;9.68;1.30;;;;;;;20.09;63.66;102200.13;5011681;28;20453;-85
2022/07/07 09:55:01;;;;;;;4.40;1.00;;;;;;;19.63;64.11;102204.88;5014638;28;20030;-84
2022/07/07 09:57:27;;;;;;;3.95;0.80;;;;;;;19.40;65.33;102197.50;5018340;28;20034;-84
2022/07/07 09:59:52;;;;;;;4.30;0.98;;;;;;;19.33;65.98;102201.34;5012758;28;20032;-87
2022/07/07 10:02:24;;;;;;;5.47;0.93;;;;;;;19.46;65.96;102208.03;5008850;28;20041;-86
2022/07/07 10:04:55;;;;;;;3.70;0.80;;;;;;;19.73;64.55;102212.13;5009317;28;20030;-85
2022/07/07 10:07:29;;;;;;;2.88;0.85;;;;;;;20.21;63.94;102218.75;5011708;28;20022;-84
2022/07/07 10:09:57;;;;;;;3.65;0.70;;;;;;;20.95;62.07;102223.00;5012190;28;20049;-85
2022/07/07 10:12:27;;;;;;;4.07;0.82;;;;;;;21.57;59.96;102222.84;5011309;28;20517;-84
2022/07/07 10:15:04;;;;;;;2.90;0.88;;;;;;;21.81;59.28;102216.47;5011331;28;20083;-84
2022/07/07 10:17:30;;;;;;;2.63;0.80;;;;;;;21.86;58.85;102224.56;5010433;28;20021;-84
2022/07/07 10:19:57;;;;;;;3.30;0.90;;;;;;;21.62;59.62;102227.44;5011486;28;20030;-83
2022/07/07 10:22:27;;;;;;;3.30;1.00;;;;;;;21.13;61.21;102227.63;5010702;28;20293;-83
2022/07/07 10:24:54;;;;;;;4.15;1.00;;;;;;;20.57;63.53;102240.13;5008794;28;20068;-84
2022/07/07 10:27:22;;;;;;;6.05;0.90;;;;;;;19.92;68.06;102249.53;5011502;28;20030;-83
2022/07/07 10:29:50;;;;;;;3.15;0.85;;;;;;;19.21;72.01;102256.03;5011501;28;20029;-84
2022/07/07 10:32:15;;;;;;;3.58;0.95;;;;;;;18.39;77.80;102254.50;5011537;28;20400;-85
2022/07/07 10:34:52;;;;;;;4.80;1.30;;;;;;;17.80;80.95;102259.47;5009902;28;20037;-84
2022/07/07 10:37:18;;;;;;;5.70;1.17;;;;;;;17.66;86.58;102259.22;5011029;28;20113;-85
2022/07/07 10:39:55;;;;;;;4.93;1.00;;;;;;;17.82;86.09;102261.91;5004861;28;20033;-85
2022/07/07 10:42:39;;;;;;;6.53;1.40;;;;;;;18.50;83.78;102265.34;5010206;28;20034;-85
2022/07/07 10:45:07;;;;;;;2.80;0.90;;;;;;;19.50;82.00;102270.78;5009992;28;20030;-85
2022/07/07 10:47:35;;;;;;;5.63;1.00;;;;;;;20.21;76.53;102273.19;5010479;28;20394;-85
2022/07/07 10:50:07;;;;;;;5.73;0.97;;;;;;;20.42;70.21;102260.97;5012571;28;20028;-86
2022/07/07 10:52:42;;;;;;;4.07;1.00;;;;;;;20.37;71.49;102277.38;5013725;28;20358;-85
2022/07/07 10:55:08;;;;;;;4.70;0.98;;;;;;;20.30;69.29;102270.66;5011262;28;20025;-84
2022/07/07 10:57:42;;;;;;;2.72;1.08;;;;;;;20.10;68.72;102289.59;5010824;28;20030;-84
2022/07/07 11:00:09;;;;;;;3.40;1.20;;;;;;;19.82;69.12;102283.03;5008296;28;20033;-85
2022/07/07 11:02:49;;;;;;;4.50;1.20;;;;;;;19.74;71.03;102281.75;5010797;28;20074;-85
2022/07/07 11:05:14;;;;;;;4.70;1.08;;;;;;;19.72;72.03;102292.09;5006729;28;20026;-86
2022/07/07 11:08:08;;;;;;;3.20;1.07;;;;;;;19.35;72.97;102305.16;5011065;28;20390;-87
2022/07/07 11:10:36;;;;;;;3.28;1.00;;;;;;;19.50;73.17;102303.41;5010329;28;20029;-85
2022/07/07 11:13:16;;;;;;;4.93;1.08;;;;;;;19.77;72.33;102305.66;5010624;28;20116;-85
2022/07/07 11:16:08;;;;;;;1.83;0.90;;;;;;;19.78;71.81;102304.56;4999793;28;20424;-85
2022/07/07 11:18:34;;;;;;;4.80;1.00;;;;;;;19.71;70.75;102314.97;5010215;28;20027;-84
2022/07/07 11:21:02;;;;;;;6.27;1.03;;;;;;;19.74;70.59;102308.94;5009838;28;20053;-85
2022/07/07 11:23:41;;;;;;;4.23;1.30;;;;;;;19.82;70.19;102326.53;5009642;28;20285;-85